Time;durP1;ratioP1;P1;durP2;ratioP2;P2;SDS_P1;SDS_P2;PMS_P1;PMS_P2;Temp;Humidity;BMP_temperature;BMP_pressure;BME280_temperature;BME280_humidity;BME280_pressure;Samples;Min_cycle;Max_cycle;Signal;HPM_P1;HPM_P2
2022/09/27 00:01:10;;;;;;;25.50;9.78;;;;;;;7.20;100.00;97658.55;2188983;81;20947;-59
2022/09/27 00:04:13;;;;;;;25.32;9.88;;;;;;;7.19;100.00;97655.56;2161530;81;21533;-59
2022/09/27 00:07:14;;;;;;;28.65;11.18;;;;;;;7.18;100.00;97660.41;2189227;81;21019;-63
2022/09/27 00:10:16;;;;;;;23.97;10.17;;;;;;;7.22;100.00;97656.66;2189126;81;21046;-58
2022/09/27 00:13:18;;;;;;;29.17;10.87;;;;;;;7.18;100.00;97651.75;2189180;81;21031;-58
2022/09/27 00:16:19;;;;;;;28.32;10.98;;;;;;;7.18;100.00;97651.75;2188912;81;21491;-58
2022/09/27 00:19:22;;;;;;;29.70;13.28;;;;;;;7.26;100.00;97647.70;2188606;81;20995;-58
2022/09/27 00:25:27;;;;;;;28.55;11.00;;;;;;;7.01;100.00;97648.49;2161696;81;21050;-58
2022/09/27 00:28:29;;;;;;;22.37;9.50;;;;;;;7.05;100.00;97648.67;2189284;81;21572;-58
2022/09/27 00:31:31;;;;;;;;;;;;;;;7.03;100.00;97645.30;2191652;81;21019;-58
2022/09/27 00:34:32;;;;;;;22.13;8.80;;;;;;;6.96;100.00;97646.64;2188917;81;20149;-58
2022/09/27 00:37:34;;;;;;;25.52;9.68;;;;;;;6.88;100.00;97638.48;2188878;81;21046;-58
2022/09/27 00:40:35;;;;;;;22.13;8.50;;;;;;;6.82;100.00;97640.19;2189315;81;20995;-58
2022/09/27 00:43:37;;;;;;;23.83;9.38;;;;;;;6.75;100.00;97634.07;2188980;81;21042;-59
2022/09/27 00:46:39;;;;;;;22.90;8.75;;;;;;;6.73;100.00;97635.09;2189205;81;21023;-58
2022/09/27 00:49:40;;;;;;;23.38;9.58;;;;;;;6.72;100.00;97632.97;2188878;81;21083;-58
2022/09/27 00:52:41;;;;;;;24.27;10.78;;;;;;;6.80;100.00;97632.94;2189177;81;21500;-58
2022/09/27 00:55:43;;;;;;;26.13;9.73;;;;;;;6.84;100.00;97630.48;2188845;81;21015;-59
2022/09/27 00:58:45;;;;;;;21.75;9.33;;;;;;;6.83;100.00;97623.14;2189153;81;21551;-61
2022/09/27 01:01:46;;;;;;;29.70;11.50;;;;;;;6.75;100.00;97618.88;2188967;81;21071;-59
2022/09/27 01:04:48;;;;;;;23.92;10.28;;;;;;;6.72;100.00;97617.34;2192449;81;21543;-59
2022/09/27 01:07:50;;;;;;;24.18;9.88;;;;;;;6.67;100.00;97618.56;2193413;81;21047;-58
2022/09/27 01:10:51;;;;;;;23.83;10.28;;;;;;;6.65;100.00;97614.76;2193178;81;21573;-62
2022/09/27 01:13:53;;;;;;;24.35;8.98;;;;;;;6.67;100.00;97613.36;2193299;81;21043;-58
2022/09/27 01:16:54;;;;;;;22.00;8.77;;;;;;;6.73;100.00;97612.95;2193746;81;21561;-58
2022/09/27 01:19:56;;;;;;;22.13;8.83;;;;;;;6.88;100.00;97609.36;2193438;81;21351;-58
2022/09/27 01:22:57;;;;;;;22.50;10.07;;;;;;;7.02;100.00;97611.03;2193529;81;21086;-58
2022/09/27 01:25:59;;;;;;;23.18;9.70;;;;;;;7.00;100.00;97603.80;2193441;81;21054;-58
2022/09/27 01:29:00;;;;;;;28.05;11.35;;;;;;;7.06;100.00;97593.43;2193241;81;21091;-58
2022/09/27 01:32:01;;;;;;;26.55;10.88;;;;;;;6.93;100.00;97594.23;2193185;81;21153;-58
2022/09/27 01:35:03;;;;;;;27.58;11.10;;;;;;;6.87;100.00;97584.22;2193243;81;21102;-58
2022/09/27 01:38:04;;;;;;;26.50;11.05;;;;;;;6.78;100.00;97586.58;2193207;81;21601;-59
2022/09/27 01:44:10;;;;;;;34.60;13.65;;;;;;;6.62;100.00;97571.11;2169505;81;21082;-62
2022/09/27 01:47:11;;;;;;;30.32;14.53;;;;;;;6.50;100.00;97567.53;2193455;81;21095;-58
2022/09/27 01:50:13;;;;;;;31.35;13.55;;;;;;;6.45;100.00;97562.63;2193305;81;21067;-59
2022/09/27 01:53:15;;;;;;;27.90;13.05;;;;;;;6.55;100.00;97574.12;2193630;81;21046;-58
2022/09/27 01:56:16;;;;;;;35.52;14.30;;;;;;;6.71;100.00;97563.53;2193225;81;21046;-58
2022/09/27 01:59:17;;;;;;;31.93;12.55;;;;;;;6.72;100.00;97557.40;2193149;81;21577;-58
2022/09/27 02:02:19;;;;;;;30.08;13.90;;;;;;;6.71;100.00;97557.02;2193216;81;21030;-58
2022/09/27 02:05:21;;;;;;;25.63;12.57;;;;;;;6.75;100.00;97548.52;2193367;81;21964;-58
2022/09/27 02:08:22;;;;;;;32.38;12.20;;;;;;;6.80;100.00;97555.58;2193612;81;21304;-58
2022/09/27 02:11:23;;;;;;;25.85;11.78;;;;;;;6.88;100.00;97555.06;2193190;81;21107;-58
2022/09/27 02:14:25;;;;;;;29.45;11.88;;;;;;;7.00;100.00;97552.13;2193603;81;21087;-58
2022/09/27 02:17:27;;;;;;;25.32;12.20;;;;;;;7.05;100.00;97550.03;2193197;81;21054;-58
2022/09/27 02:20:28;;;;;;;25.27;12.00;;;;;;;7.10;100.00;97550.58;2193361;81;21548;-58
2022/09/27 02:23:30;;;;;;;25.30;11.90;;;;;;;7.14;100.00;97544.67;2192980;81;21003;-58
2022/09/27 02:26:31;;;;;;;26.30;12.45;;;;;;;7.16;100.00;97542.81;2193132;81;21568;-58
2022/09/27 02:29:33;;;;;;;29.82;12.90;;;;;;;7.19;100.00;97542.59;2193158;81;21059;-58
2022/09/27 02:32:34;;;;;;;29.10;12.98;;;;;;;7.23;100.00;97538.84;2193411;81;21106;-58
2022/09/27 02:35:36;;;;;;;27.05;12.75;;;;;;;7.21;100.00;97535.05;2193348;81;21050;-59
2022/09/27 02:38:37;;;;;;;26.35;13.08;;;;;;;7.19;100.00;97535.59;2193180;81;21043;-58
2022/09/27 02:41:39;;;;;;;27.55;13.70;;;;;;;7.20;100.00;97530.76;2193554;81;21122;-58
2022/09/27 02:44:40;;;;;;;28.05;13.20;;;;;;;7.26;100.00;97532.12;2192850;81;20998;-58
2022/09/27 02:47:42;;;;;;;29.42;13.48;;;;;;;7.24;100.00;97526.15;2193353;81;20967;-58
2022/09/27 02:50:43;;;;;;;27.32;13.48;;;;;;;7.27;100.00;97527.27;2193117;81;21038;-58
2022/09/27 02:53:45;;;;;;;27.33;13.17;;;;;;;7.28;100.00;97519.79;2193571;81;21577;-58
2022/09/27 02:56:46;;;;;;;26.93;13.30;;;;;;;7.25;100.00;97515.61;2193196;81;21035;-58
2022/09/27 02:59:48;;;;;;;27.40;12.63;;;;;;;7.23;100.00;97514.07;2193260;81;21594;-58
2022/09/27 03:02:49;;;;;;;27.90;13.13;;;;;;;7.28;100.00;97514.58;2193071;81;21062;-59
2022/09/27 03:05:50;;;;;;;28.65;12.55;;;;;;;7.27;100.00;97511.14;2188860;81;20959;-58
2022/09/27 03:08:52;;;;;;;34.27;13.25;;;;;;;7.29;100.00;97511.86;2188984;81;20983;-58
2022/09/27 03:11:54;;;;;;;30.40;13.05;;;;;;;7.34;100.00;97513.32;2188750;81;21079;-59
2022/09/27 03:14:56;;;;;;;27.07;12.10;;;;;;;7.43;100.00;97507.48;2189241;81;21028;-58
2022/09/27 03:17:57;;;;;;;30.48;14.55;;;;;;;7.54;100.00;97503.66;2188939;81;21011;-60
2022/09/27 03:20:58;;;;;;;29.23;14.43;;;;;;;7.51;100.00;97498.63;2188974;81;21056;-58
2022/09/27 03:24:00;;;;;;;26.90;13.28;;;;;;;7.46;100.00;97502.88;2188582;81;21054;-59
2022/09/27 03:27:02;;;;;;;31.12;12.70;;;;;;;7.52;100.00;97504.70;2188892;81;21550;-58
2022/09/27 03:30:05;;;;;;;26.60;13.32;;;;;;;7.67;100.00;97494.96;2189024;81;21022;-58
2022/09/27 03:33:08;;;;;;;29.30;13.20;;;;;;;7.63;100.00;97487.83;2189199;81;20947;-58
2022/09/27 03:36:10;;;;;;;26.65;12.20;;;;;;;7.57;100.00;97485.63;2189220;81;20991;-58
2022/09/27 03:39:12;;;;;;;26.97;12.75;;;;;;;7.60;100.00;97484.11;2189091;81;21581;-58
2022/09/27 03:42:14;;;;;;;30.60;13.43;;;;;;;7.55;100.00;97476.61;2189190;81;20986;-58
2022/09/27 03:45:15;;;;;;;30.00;12.50;;;;;;;7.51;100.00;97472.55;2188925;81;21063;-58
2022/09/27 03:48:16;;;;;;;24.37;11.80;;;;;;;7.41;100.00;97465.86;2188716;81;20995;-59
2022/09/27 03:51:18;;;;;;;29.90;12.58;;;;;;;7.35;100.00;97463.66;2188917;81;21015;-58
2022/09/27 03:54:19;;;;;;;30.40;12.73;;;;;;;7.39;100.00;97465.59;2188918;81;21564;-59
2022/09/27 03:57:21;;;;;;;29.35;11.90;;;;;;;7.46;100.00;97466.34;2188977;81;20975;-58
2022/09/27 04:00:23;;;;;;;26.57;12.43;;;;;;;7.49;100.00;97456.66;2189347;81;21561;-59
2022/09/27 04:03:25;;;;;;;26.62;11.45;;;;;;;7.47;100.00;97450.25;2189780;81;21062;-58
2022/09/27 04:06:28;;;;;;;30.00;11.57;;;;;;;7.45;100.00;97450.80;2193715;81;21046;-58
2022/09/27 04:09:30;;;;;;;;;;;;;;;7.41;100.00;97440.22;2196346;81;21506;-61
2022/09/27 04:12:31;;;;;;;25.65;10.75;;;;;;;7.50;100.00;97445.26;2193321;81;20148;-58
2022/09/27 04:15:33;;;;;;;27.45;11.97;;;;;;;7.51;100.00;97441.72;2193481;81;21107;-58
2022/09/27 04:18:35;;;;;;;24.98;11.35;;;;;;;7.58;100.00;97447.69;2193223;81;21042;-58
2022/09/27 04:21:36;;;;;;;26.10;11.00;;;;;;;7.61;100.00;97446.64;2193328;81;21562;-58
2022/09/27 04:24:38;;;;;;;24.18;10.70;;;;;;;7.69;100.00;97440.41;2193465;81;21039;-60
2022/09/27 04:27:42;;;;;;;25.27;10.35;;;;;;;7.74;100.00;97430.94;2193660;81;21541;-62
2022/09/27 04:30:42;;;;;;;26.68;10.10;;;;;;;7.76;100.00;97432.99;2170328;81;21521;-61
2022/09/27 04:33:44;;;;;;;29.40;9.88;;;;;;;7.83;100.00;97440.74;2193428;81;21058;-61
2022/09/27 04:36:45;;;;;;;23.32;9.45;;;;;;;7.87;100.00;97440.86;2193425;81;21059;-61
2022/09/27 04:39:48;;;;;;;25.97;10.28;;;;;;;7.85;100.00;97434.92;2193547;81;21071;-62
2022/09/27 04:42:49;;;;;;;22.75;9.95;;;;;;;7.92;100.00;97442.67;2193256;81;21589;-61
2022/09/27 04:45:51;;;;;;;35.20;11.15;;;;;;;8.03;100.00;97451.05;2193287;81;21038;-61
2022/09/27 04:48:52;;;;;;;32.38;10.75;;;;;;;8.03;100.00;97455.42;2193464;81;21551;-61
2022/09/27 04:51:54;;;;;;;25.55;10.20;;;;;;;8.13;100.00;97461.64;2193384;81;21107;-61
2022/09/27 04:54:55;;;;;;;25.10;10.23;;;;;;;8.24;100.00;97450.42;2193449;81;21597;-60
2022/09/27 04:57:57;;;;;;;27.42;10.08;;;;;;;8.33;100.00;97451.04;2193426;81;21047;-61
2022/09/27 05:01:01;;;;;;;26.65;10.08;;;;;;;8.40;100.00;97456.66;2193667;81;21561;-61
2022/09/27 05:04:02;;;;;;;29.60;9.60;;;;;;;8.53;100.00;97452.20;2193058;81;21046;-62
2022/09/27 05:07:04;;;;;;;23.62;9.60;;;;;;;8.58;100.00;97455.81;2193640;81;21074;-62
2022/09/27 05:10:05;;;;;;;23.65;9.50;;;;;;;8.58;100.00;97457.12;2193054;81;21078;-60
2022/09/27 05:13:07;;;;;;;24.92;9.38;;;;;;;8.62;100.00;97451.99;2193647;81;21102;-61
2022/09/27 05:16:09;;;;;;;27.40;9.30;;;;;;;8.69;100.00;97453.68;2193270;81;21027;-61
2022/09/27 05:19:10;;;;;;;26.70;10.35;;;;;;;8.72;100.00;97449.52;2193225;81;21629;-60
2022/09/27 05:22:12;;;;;;;32.60;11.12;;;;;;;8.82;100.00;97449.18;2193198;81;21025;-62
2022/09/27 05:25:14;;;;;;;34.00;10.50;;;;;;;8.96;100.00;97454.68;2193519;81;21550;-62
2022/09/27 05:28:15;;;;;;;24.85;9.80;;;;;;;9.13;100.00;97450.30;2193445;81;21063;-61
2022/09/27 05:31:17;;;;;;;26.23;10.00;;;;;;;9.21;100.00;97454.95;2193414;81;21080;-61
2022/09/27 05:34:19;;;;;;;24.63;10.15;;;;;;;9.35;100.00;97454.72;2193500;81;21075;-61
2022/09/27 05:37:21;;;;;;;38.90;9.93;;;;;;;9.50;100.00;97454.47;2193393;81;21593;-58
2022/09/27 05:40:23;;;;;;;29.98;10.65;;;;;;;9.60;100.00;97447.55;2193272;81;21079;-61
2022/09/27 05:43:25;;;;;;;27.15;10.30;;;;;;;9.61;100.00;97442.69;2193367;81;21063;-62
2022/09/27 05:46:26;;;;;;;28.55;10.15;;;;;;;9.47;100.00;97429.85;2193523;81;21109;-60
2022/09/27 05:49:28;;;;;;;26.37;10.20;;;;;;;9.53;100.00;97428.05;2193490;81;21187;-62
2022/09/27 05:52:29;;;;;;;27.90;10.35;;;;;;;9.67;100.00;97433.52;2193206;81;22190;-61
2022/09/27 05:55:31;;;;;;;27.00;11.48;;;;;;;9.69;100.00;97431.10;2193348;81;21059;-59
2022/09/27 05:58:33;;;;;;;27.55;10.55;;;;;;;9.73;100.00;97433.02;2193204;81;21110;-58
2022/09/27 06:01:35;;;;;;;44.25;11.73;;;;;;;9.78;100.00;97437.39;2193031;81;21073;-62
2022/09/27 06:04:36;;;;;;;34.15;11.63;;;;;;;9.97;100.00;97435.45;2193034;81;21114;-61
2022/09/27 06:07:38;;;;;;;30.65;12.03;;;;;;;9.97;100.00;97438.53;2193366;81;21063;-59
2022/09/27 06:10:39;;;;;;;25.20;11.35;;;;;;;9.94;100.00;97433.09;2193336;81;21102;-58
2022/09/27 06:13:41;;;;;;;26.65;12.20;;;;;;;10.02;100.00;97429.35;2193518;81;21047;-59
2022/09/27 06:16:44;;;;;;;28.38;12.07;;;;;;;10.06;100.00;97424.22;2193627;81;21074;-60
2022/09/27 06:19:46;;;;;;;34.05;12.20;;;;;;;10.09;100.00;97425.77;2193205;81;21058;-61
2022/09/27 06:22:48;;;;;;;30.62;12.80;;;;;;;10.09;100.00;97430.19;2193423;81;21090;-58
2022/09/27 06:25:49;;;;;;;26.42;12.20;;;;;;;10.26;100.00;97430.95;2193213;81;21074;-59
2022/09/27 06:28:51;;;;;;;31.85;13.18;;;;;;;10.46;100.00;97434.58;2193291;81;21046;-59
2022/09/27 06:31:52;;;;;;;30.50;13.10;;;;;;;10.59;100.00;97440.95;2193139;81;21071;-61
2022/09/27 06:34:54;;;;;;;29.95;12.63;;;;;;;10.71;100.00;97446.47;2193832;81;21538;-62
2022/09/27 06:37:55;;;;;;;30.10;12.82;;;;;;;10.80;100.00;97430.44;2193292;81;21110;-59
2022/09/27 06:40:57;;;;;;;28.37;13.30;;;;;;;10.91;100.00;97424.30;2193428;81;21600;-59
2022/09/27 06:44:00;;;;;;;28.00;12.25;;;;;;;11.04;100.00;97417.04;2193443;81;21066;-62
2022/09/27 06:47:01;;;;;;;;;;;;;;;11.15;100.00;97421.84;2195630;81;21015;-62
2022/09/27 06:50:05;;;;;;;30.48;12.18;;;;;;;11.34;100.00;97430.30;2192997;81;20160;-58
2022/09/27 06:53:07;;;;;;;30.40;12.85;;;;;;;11.48;100.00;97426.46;2193396;81;21604;-59
2022/09/27 06:56:09;;;;;;;29.15;13.43;;;;;;;11.84;100.00;97428.14;2193436;81;21098;-58
2022/09/27 07:02:13;;;;;;;26.82;12.15;;;;;;;12.38;100.00;97420.74;2170064;81;21022;-59
2022/09/27 07:05:15;;;;;;;26.62;12.35;;;;;;;12.62;100.00;97424.25;2191349;81;21051;-62
2022/09/27 07:08:17;;;;;;;28.45;13.25;;;;;;;12.73;100.00;97419.30;2189259;81;20967;-59
2022/09/27 07:11:18;;;;;;;30.05;14.20;;;;;;;12.82;100.00;97424.55;2189017;81;21101;-59
2022/09/27 07:14:20;;;;;;;29.03;14.47;;;;;;;13.10;100.00;97422.00;2189431;81;20983;-59
2022/09/27 07:17:22;;;;;;;29.00;14.35;;;;;;;13.28;100.00;97414.16;2189125;81;20956;-59
2022/09/27 07:20:24;;;;;;;28.32;12.80;;;;;;;13.48;100.00;97412.80;2189014;81;21335;-59
2022/09/27 07:23:25;;;;;;;30.08;14.50;;;;;;;13.60;100.00;97410.28;2188928;81;21019;-59
2022/09/27 07:26:27;;;;;;;30.95;14.50;;;;;;;13.80;100.00;97406.23;2189296;81;21585;-59
2022/09/27 07:29:28;;;;;;;29.63;13.33;;;;;;;13.94;100.00;97413.62;2188709;81;21083;-59
2022/09/27 07:32:30;;;;;;;29.50;15.25;;;;;;;14.05;100.00;97416.55;2189077;81;21049;-62
2022/09/27 07:35:35;;;;;;;30.25;14.25;;;;;;;14.15;100.00;97415.13;2161828;81;21031;-59
2022/09/27 07:38:36;;;;;;;32.20;16.50;;;;;;;14.20;100.00;97416.84;2161895;81;21030;-59
2022/09/27 07:41:39;;;;;;;29.75;14.95;;;;;;;14.38;100.00;97420.30;2189393;81;21007;-59
2022/09/27 07:44:40;;;;;;;29.90;13.53;;;;;;;14.67;100.00;97417.10;2189060;81;20943;-59
2022/09/27 07:47:42;;;;;;;29.52;14.07;;;;;;;14.90;100.00;97409.50;2189033;81;21537;-58
2022/09/27 07:50:44;;;;;;;28.77;13.87;;;;;;;14.88;100.00;97414.09;2189156;81;21027;-59
2022/09/27 07:53:45;;;;;;;27.87;12.98;;;;;;;15.06;100.00;97418.00;2189164;81;21050;-59
2022/09/27 07:56:47;;;;;;;28.70;13.57;;;;;;;15.19;100.00;97415.76;2189492;81;21042;-62
2022/09/27 07:59:48;;;;;;;28.30;13.25;;;;;;;15.37;100.00;97418.34;2189097;81;20963;-59
2022/09/27 08:02:50;;;;;;;28.13;12.67;;;;;;;15.52;100.00;97411.95;2189533;81;20955;-59
2022/09/27 08:05:51;;;;;;;26.50;12.63;;;;;;;15.67;100.00;97413.98;2191755;81;21030;-59
2022/09/27 08:08:53;;;;;;;27.98;13.22;;;;;;;15.73;100.00;97409.36;2193330;81;21070;-59
2022/09/27 08:11:56;;;;;;;27.58;13.90;;;;;;;15.86;100.00;97411.09;2193564;81;21087;-59
2022/09/27 08:15:00;;;;;;;27.32;12.40;;;;;;;15.96;100.00;97401.71;2193596;81;21114;-59
2022/09/27 08:18:01;;;;;;;26.05;12.20;;;;;;;16.07;100.00;97400.55;2170038;81;20995;-62
2022/09/27 08:21:02;;;;;;;27.95;13.05;;;;;;;16.19;100.00;97397.94;2193506;81;21106;-62
2022/09/27 08:24:04;;;;;;;28.02;12.93;;;;;;;16.14;100.00;97395.45;2193485;81;21133;-63
2022/09/27 08:27:06;;;;;;;26.57;12.10;;;;;;;16.15;100.00;97403.22;2193484;81;21611;-59
2022/09/27 08:30:08;;;;;;;26.30;11.93;;;;;;;16.33;100.00;97403.05;2193280;81;21058;-59
2022/09/27 08:33:10;;;;;;;25.95;11.95;;;;;;;16.50;100.00;97401.74;2193680;81;21071;-59
2022/09/27 08:36:11;;;;;;;26.93;12.60;;;;;;;16.60;100.00;97398.42;2193385;81;21086;-59
2022/09/27 08:39:13;;;;;;;24.63;12.05;;;;;;;16.61;100.00;97397.44;2193720;81;21063;-59
2022/09/27 08:42:16;;;;;;;26.67;12.00;;;;;;;16.72;100.00;97390.96;2193545;81;21047;-61
2022/09/27 08:45:17;;;;;;;27.52;12.00;;;;;;;16.80;100.00;97382.51;2193235;81;21099;-59
2022/09/27 08:48:20;;;;;;;26.25;11.78;;;;;;;16.87;100.00;97376.56;2193193;81;21608;-59
2022/09/27 08:51:22;;;;;;;26.70;12.00;;;;;;;16.94;100.00;97378.89;2193355;81;21114;-61
2022/09/27 08:54:23;;;;;;;25.13;12.47;;;;;;;17.06;100.00;97376.70;2193910;81;21567;-60
2022/09/27 08:57:25;;;;;;;24.47;11.35;;;;;;;17.21;100.00;97380.30;2193488;81;21079;-62
2022/09/27 09:00:26;;;;;;;25.80;11.83;;;;;;;17.25;100.00;97384.23;2193912;81;21572;-62
2022/09/27 09:03:28;;;;;;;25.67;11.57;;;;;;;17.28;100.00;97385.72;2193627;81;21302;-62
2022/09/27 09:06:29;;;;;;;24.95;12.23;;;;;;;17.29;100.00;97376.27;2193319;81;21375;-62
2022/09/27 09:09:31;;;;;;;29.18;14.93;;;;;;;17.34;100.00;97375.78;2193533;81;21054;-59
2022/09/27 09:15:53;;;;;;;24.10;11.43;;;;;;;17.45;100.00;97374.05;2170131;81;21034;-59
2022/09/27 09:18:39;;;;;;;25.70;11.65;;;;;;;17.62;100.00;97366.03;2170148;81;21555;-60
2022/09/27 09:21:41;;;;;;;23.10;10.63;;;;;;;17.79;100.00;97364.13;2193164;81;20994;-59
2022/09/27 09:24:42;;;;;;;23.63;10.57;;;;;;;17.82;100.00;97361.93;2193507;81;21334;-63
2022/09/27 09:27:44;;;;;;;23.12;9.75;;;;;;;17.89;100.00;97353.30;2193521;81;21332;-60
2022/09/27 09:30:45;;;;;;;23.62;9.98;;;;;;;18.05;100.00;97347.08;2193369;81;21082;-59
2022/09/27 09:33:47;;;;;;;24.30;9.83;;;;;;;18.16;100.00;97345.34;2193615;81;21623;-62
2022/09/27 09:36:48;;;;;;;23.77;10.03;;;;;;;18.16;100.00;97350.64;2193378;81;21127;-63
2022/09/27 09:39:50;;;;;;;22.93;9.53;;;;;;;18.32;100.00;97356.31;2193429;81;21110;-59
2022/09/27 09:42:52;;;;;;;23.15;8.95;;;;;;;18.68;100.00;97352.49;2193526;81;21130;-60
2022/09/27 09:45:53;;;;;;;21.65;10.18;;;;;;;18.91;100.00;97340.20;2193641;81;21062;-59
2022/09/27 09:48:55;;;;;;;22.48;9.98;;;;;;;19.06;100.00;97336.20;2193354;81;21058;-59
2022/09/27 09:51:57;;;;;;;20.85;9.35;;;;;;;19.33;100.00;97327.55;2193613;81;21629;-60
2022/09/27 09:54:58;;;;;;;23.18;9.38;;;;;;;19.37;100.00;97310.73;2193356;81;21051;-59
2022/09/27 09:57:59;;;;;;;22.10;9.43;;;;;;;19.46;100.00;97318.91;2193336;81;21083;-64
2022/09/27 10:01:01;;;;;;;23.95;10.58;;;;;;;19.53;100.00;97312.34;2193467;81;21039;-63
2022/09/27 10:04:03;;;;;;;23.55;9.83;;;;;;;19.45;100.00;97308.46;2193486;81;21094;-63
2022/09/27 10:07:04;;;;;;;22.52;9.60;;;;;;;19.33;100.00;97313.44;2189662;81;21113;-61
2022/09/27 10:10:05;;;;;;;23.32;9.88;;;;;;;19.30;100.00;97311.97;2189046;81;20983;-59
2022/09/27 10:13:07;;;;;;;22.35;9.83;;;;;;;19.23;100.00;97305.75;2189366;81;21509;-59
2022/09/27 10:16:08;;;;;;;22.67;9.58;;;;;;;19.34;100.00;97302.63;2189108;81;21027;-62
2022/09/27 10:19:10;;;;;;;20.08;8.45;;;;;;;19.53;100.00;97292.41;2189090;81;21529;-60
2022/09/27 10:22:11;;;;;;;19.73;8.28;;;;;;;19.79;100.00;97291.06;2188879;81;20987;-63
2022/09/27 10:25:15;;;;;;;19.55;8.70;;;;;;;19.89;100.00;97292.89;2189099;81;21530;-63
2022/09/27 10:28:17;;;;;;;22.77;9.53;;;;;;;19.91;100.00;97288.20;2188805;81;21058;-60
2022/09/27 10:31:18;;;;;;;19.50;8.25;;;;;;;19.98;100.00;97286.94;2188771;81;21565;-63
2022/09/27 10:34:20;;;;;;;21.12;8.95;;;;;;;20.11;100.00;97285.71;2188954;81;21039;-59
2022/09/27 10:37:21;;;;;;;20.52;8.33;;;;;;;20.22;100.00;97282.53;2188916;81;21541;-64
2022/09/27 10:40:23;;;;;;;21.50;9.40;;;;;;;20.34;100.00;97276.19;2188961;81;20939;-59
2022/09/27 10:43:25;;;;;;;20.97;8.65;;;;;;;20.32;100.00;97266.75;2189111;81;21510;-60
2022/09/27 10:46:26;;;;;;;21.25;9.33;;;;;;;20.46;100.00;97275.14;2189128;81;21022;-63
2022/09/27 10:49:27;;;;;;;20.15;8.68;;;;;;;20.46;100.00;97270.30;2188938;81;21066;-60
2022/09/27 10:52:29;;;;;;;21.40;10.35;;;;;;;20.38;100.00;97261.45;2189051;81;21086;-63
2022/09/27 10:55:30;;;;;;;20.92;8.93;;;;;;;20.36;100.00;97260.02;2188952;81;20971;-63
2022/09/27 10:58:32;;;;;;;21.12;8.28;;;;;;;20.58;100.00;97251.45;2189156;81;21051;-59
2022/09/27 11:01:33;;;;;;;23.32;8.75;;;;;;;20.84;100.00;97241.98;2189057;81;21018;-63
2022/09/27 11:04:35;;;;;;;20.02;8.98;;;;;;;20.89;100.00;97244.89;2188733;81;21593;-63
2022/09/27 11:07:36;;;;;;;23.38;9.68;;;;;;;21.03;100.00;97241.75;2188663;81;21010;-59
2022/09/27 11:10:39;;;;;;;;;;;;;;;20.99;100.00;97236.51;2191743;81;21526;-60
2022/09/27 11:13:40;;;;;;;20.02;8.75;;;;;;;21.17;100.00;97231.45;2189266;81;20145;-59
2022/09/27 11:16:42;;;;;;;20.50;8.58;;;;;;;21.42;100.00;97234.90;2189428;81;20995;-63
2022/09/27 11:19:43;;;;;;;21.45;8.20;;;;;;;21.29;100.00;97227.20;2189125;81;20955;-63
2022/09/27 11:22:45;;;;;;;20.23;8.10;;;;;;;20.99;100.00;97233.35;2189407;81;21513;-61
2022/09/27 11:25:46;;;;;;;20.12;8.23;;;;;;;21.01;100.00;97221.16;2189147;81;20975;-60
2022/09/27 11:28:48;;;;;;;19.52;7.72;;;;;;;20.92;100.00;97221.84;2189285;81;21541;-63
2022/09/27 11:31:50;;;;;;;19.23;7.42;;;;;;;20.89;100.00;97218.25;2188794;81;21026;-64
2022/09/27 11:34:53;;;;;;;20.27;7.85;;;;;;;21.09;100.00;97215.66;2189415;81;21573;-64
2022/09/27 11:37:54;;;;;;;19.75;7.67;;;;;;;21.41;100.00;97207.95;2188797;81;21031;-60
2022/09/27 11:40:57;;;;;;;18.75;7.47;;;;;;;21.57;100.00;97202.77;2189508;81;21525;-60
2022/09/27 11:43:58;;;;;;;19.30;7.37;;;;;;;21.73;100.00;97202.36;2189109;81;21041;-62
2022/09/27 11:47:00;;;;;;;18.40;7.58;;;;;;;21.52;100.00;97194.05;2189428;81;20995;-58
2022/09/27 11:50:02;;;;;;;19.57;7.58;;;;;;;21.16;100.00;97203.17;2189191;81;20986;-63
2022/09/27 11:53:03;;;;;;;20.85;8.40;;;;;;;21.11;100.00;97195.75;2189386;81;21031;-61
2022/09/27 11:56:05;;;;;;;20.72;8.65;;;;;;;21.06;100.00;97194.71;2189131;81;21018;-64
2022/09/27 11:59:06;;;;;;;20.17;8.05;;;;;;;21.02;100.00;97198.80;2189055;81;21518;-62
2022/09/27 12:02:08;;;;;;;19.65;8.08;;;;;;;20.87;100.00;97182.97;2189129;81;20987;-60
2022/09/27 12:05:10;;;;;;;18.17;7.45;;;;;;;20.80;100.00;97184.78;2189035;81;21545;-60
2022/09/27 12:08:12;;;;;;;18.98;7.10;;;;;;;21.01;100.00;97193.98;2188956;81;20988;-63
2022/09/27 12:11:14;;;;;;;19.65;6.70;;;;;;;21.19;100.00;97188.59;2189233;81;21011;-64
2022/09/27 12:14:16;;;;;;;20.68;7.28;;;;;;;21.24;100.00;97183.50;2189116;81;20990;-60
2022/09/27 12:17:18;;;;;;;18.52;6.95;;;;;;;21.23;100.00;97183.18;2189214;81;20999;-60
2022/09/27 12:20:19;;;;;;;;;;;;;;;21.27;100.00;97177.23;2191687;81;21007;-60
2022/09/27 12:23:21;;;;;;;18.12;6.95;;;;;;;21.28;100.00;97174.89;2189651;81;20141;-60
2022/09/27 12:26:22;;;;;;;20.35;7.05;;;;;;;21.46;100.00;97175.65;2189012;81;21053;-63
2022/09/27 12:29:24;;;;;;;17.95;6.78;;;;;;;21.76;100.00;97165.92;2188903;81;21031;-64
2022/09/27 12:32:26;;;;;;;;;;;;;;;21.95;100.00;97166.13;2191379;81;20999;-62
2022/09/27 12:35:27;;;;;;;19.60;7.58;;;;;;;22.10;100.00;97165.92;2189377;81;20190;-64
2022/09/27 12:38:29;;;;;;;17.45;6.80;;;;;;;21.68;100.00;97169.31;2189057;81;20964;-59
2022/09/27 12:41:30;;;;;;;18.17;6.83;;;;;;;21.58;100.00;97163.08;2189356;81;21264;-60
2022/09/27 12:44:32;;;;;;;18.70;7.10;;;;;;;21.69;100.00;97157.09;2189066;81;20983;-64
2022/09/27 12:47:33;;;;;;;20.12;7.60;;;;;;;21.75;100.00;97156.30;2189296;81;21530;-60
2022/09/27 12:50:36;;;;;;;18.15;7.15;;;;;;;21.74;100.00;97164.52;2189037;81;21042;-64
2022/09/27 12:53:38;;;;;;;17.92;6.78;;;;;;;21.75;100.00;97159.46;2188923;81;21027;-60
2022/09/27 12:56:39;;;;;;;18.07;7.67;;;;;;;22.01;100.00;97152.47;2189196;81;21015;-60
2022/09/27 12:59:40;;;;;;;17.87;6.90;;;;;;;22.40;100.00;97152.13;2189265;81;20983;-59
2022/09/27 13:02:42;;;;;;;19.10;7.55;;;;;;;22.75;100.00;97145.92;2189182;81;20975;-62
2022/09/27 13:05:44;;;;;;;19.52;7.75;;;;;;;22.86;100.00;97144.94;2188902;81;21522;-60
2022/09/27 13:08:45;;;;;;;21.75;7.60;;;;;;;22.57;100.00;97141.78;2189172;81;21049;-64
2022/09/27 13:11:48;;;;;;;20.00;7.75;;;;;;;22.15;100.00;97132.23;2189396;81;21453;-60
2022/09/27 13:14:50;;;;;;;20.77;9.10;;;;;;;21.91;100.00;97135.53;2188955;81;20998;-64
2022/09/27 13:17:52;;;;;;;21.00;9.10;;;;;;;21.80;100.00;97127.66;2189151;81;20979;-60
2022/09/27 13:20:54;;;;;;;22.77;8.25;;;;;;;21.25;100.00;97135.83;2188877;81;21082;-60
2022/09/27 13:23:56;;;;;;;22.25;8.98;;;;;;;20.88;100.00;97121.48;2188566;81;21050;-60
2022/09/27 13:27:00;;;;;;;19.67;8.65;;;;;;;20.78;100.00;97113.05;2189110;81;20990;-63
2022/09/27 13:30:01;;;;;;;20.60;8.40;;;;;;;20.89;100.00;97109.81;2189189;81;20995;-63
2022/09/27 13:33:03;;;;;;;20.43;8.45;;;;;;;21.09;100.00;97112.52;2188996;81;21023;-59
2022/09/27 13:36:06;;;;;;;20.25;8.75;;;;;;;21.06;100.00;97116.09;2189266;81;21276;-59
2022/09/27 13:39:09;;;;;;;20.95;8.85;;;;;;;20.89;100.00;97112.48;2189038;81;21006;-63
2022/09/27 13:42:10;;;;;;;20.55;8.35;;;;;;;20.70;100.00;97107.90;2188808;81;21097;-59
2022/09/27 13:45:12;;;;;;;22.13;9.03;;;;;;;20.35;100.00;97111.94;2188731;81;21138;-63
2022/09/27 13:48:14;;;;;;;20.88;8.65;;;;;;;20.01;100.00;97118.91;2189072;81;21050;-64
2022/09/27 13:51:15;;;;;;;24.35;10.05;;;;;;;19.91;100.00;97112.60;2189016;81;21067;-59
2022/09/27 13:54:17;;;;;;;20.65;8.68;;;;;;;19.83;100.00;97108.27;2189264;81;21533;-59
2022/09/27 13:57:18;;;;;;;21.02;8.80;;;;;;;19.73;100.00;97109.90;2189003;81;21098;-59
2022/09/27 14:00:21;;;;;;;18.87;7.78;;;;;;;19.83;100.00;97107.45;2188975;81;21485;-59
2022/09/27 14:03:22;;;;;;;19.92;8.20;;;;;;;20.05;100.00;97099.69;2189001;81;21008;-59
2022/09/27 14:06:24;;;;;;;19.12;7.42;;;;;;;20.05;100.00;97099.69;2189040;81;21553;-63